sensor_id;sensor_type;location;lat;lon;timestamp;temperature;humidity
19435;DHT22;9853;50.848;4.108;2024-02-26T00:36:52;6.70;99.90
19435;DHT22;9853;50.848;4.108;2024-02-26T00:39:42;6.70;99.90
19435;DHT22;9853;50.848;4.108;2024-02-26T00:45:37;6.60;99.90
19435;DHT22;9853;50.848;4.108;2024-02-26T00:47:54;6.70;99.90
19435;DHT22;9853;50.848;4.108;2024-02-26T00:51:11;6.60;99.90
19435;DHT22;9853;50.848;4.108;2024-02-26T00:59:23;6.60;99.90
19435;DHT22;9853;50.848;4.108;2024-02-26T01:02:40;6.60;99.90
19435;DHT22;9853;50.848;4.108;2024-02-26T01:12:51;6.60;99.90
19435;DHT22;9853;50.848;4.108;2024-02-26T01:15:41;6.80;99.90
19435;DHT22;9853;50.848;4.108;2024-02-26T01:21:48;6.70;99.90
19435;DHT22;9853;50.848;4.108;2024-02-26T01:23:58;6.60;99.90
19435;DHT22;9853;50.848;4.108;2024-02-26T01:29:24;6.50;99.90
19435;DHT22;9853;50.848;4.108;2024-02-26T01:32:11;6.50;99.90
19435;DHT22;9853;50.848;4.108;2024-02-26T01:37:55;6.50;99.90
19435;DHT22;9853;50.848;4.108;2024-02-26T01:39:58;6.50;99.90
19435;DHT22;9853;50.848;4.108;2024-02-26T01:42:23;6.60;99.90
19435;DHT22;9853;50.848;4.108;2024-02-26T01:48:08;6.70;99.90
19435;DHT22;9853;50.848;4.108;2024-02-26T01:50:35;6.70;99.90
19435;DHT22;9853;50.848;4.108;2024-02-26T01:58:17;6.70;99.90
19435;DHT22;9853;50.848;4.108;2024-02-26T02:00:50;6.60;99.90
19435;DHT22;9853;50.848;4.108;2024-02-26T02:02:57;6.60;99.90
19435;DHT22;9853;50.848;4.108;2024-02-26T02:05:23;6.60;99.90
19435;DHT22;9853;50.848;4.108;2024-02-26T02:07:43;6.70;99.90
19435;DHT22;9853;50.848;4.108;2024-02-26T02:09:56;6.60;99.90
19435;DHT22;9853;50.848;4.108;2024-02-26T02:12:12;6.70;99.90
19435;DHT22;9853;50.848;4.108;2024-02-26T02:14:39;6.60;99.90
19435;DHT22;9853;50.848;4.108;2024-02-26T02:16:43;6.70;99.90
19435;DHT22;9853;50.848;4.108;2024-02-26T02:24:22;6.70;99.90
19435;DHT22;9853;50.848;4.108;2024-02-26T02:26:46;6.60;99.90
19435;DHT22;9853;50.848;4.108;2024-02-26T02:28:56;6.70;99.90
19435;DHT22;9853;50.848;4.108;2024-02-26T02:34:43;6.60;99.90
19435;DHT22;9853;50.848;4.108;2024-02-26T02:36:54;6.60;99.90
19435;DHT22;9853;50.848;4.108;2024-02-26T02:39:28;6.60;99.90
19435;DHT22;9853;50.848;4.108;2024-02-26T02:44:40;6.70;99.90
19435;DHT22;9853;50.848;4.108;2024-02-26T02:58:39;6.50;99.90
19435;DHT22;9853;50.848;4.108;2024-02-26T03:04:56;6.50;99.90
19435;DHT22;9853;50.848;4.108;2024-02-26T03:14:15;6.60;99.90
19435;DHT22;9853;50.848;4.108;2024-02-26T03:29:47;6.70;99.90
19435;DHT22;9853;50.848;4.108;2024-02-26T03:32:34;6.70;99.90
19435;DHT22;9853;50.848;4.108;2024-02-26T03:35:14;6.50;99.90
19435;DHT22;9853;50.848;4.108;2024-02-26T03:41:45;6.60;99.90
19435;DHT22;9853;50.848;4.108;2024-02-26T04:08:03;6.60;99.90
19435;DHT22;9853;50.848;4.108;2024-02-26T05:04:04;6.30;99.90
19435;DHT22;9853;50.848;4.108;2024-02-26T05:23:41;6.40;99.90
19435;DHT22;9853;50.848;4.108;2024-02-26T05:55:31;6.30;99.90
19435;DHT22;9853;50.848;4.108;2024-02-26T06:02:17;6.30;99.90
19435;DHT22;9853;50.848;4.108;2024-02-26T06:05:36;6.30;99.90
19435;DHT22;9853;50.848;4.108;2024-02-26T07:01:05;6.20;99.90
19435;DHT22;9853;50.848;4.108;2024-02-26T07:03:15;6.30;99.90
19435;DHT22;9853;50.848;4.108;2024-02-26T07:05:23;6.20;99.90
19435;DHT22;9853;50.848;4.108;2024-02-26T07:07:49;6.20;99.90
19435;DHT22;9853;50.848;4.108;2024-02-26T07:10:20;6.20;99.90
19435;DHT22;9853;50.848;4.108;2024-02-26T07:14:56;6.10;99.90
19435;DHT22;9853;50.848;4.108;2024-02-26T07:17:02;6.10;99.90
19435;DHT22;9853;50.848;4.108;2024-02-26T07:19:13;6.10;99.90
19435;DHT22;9853;50.848;4.108;2024-02-26T07:21:24;6.10;99.90
19435;DHT22;9853;50.848;4.108;2024-02-26T07:23:35;6.10;99.90
19435;DHT22;9853;50.848;4.108;2024-02-26T07:25:44;6.10;99.90
19435;DHT22;9853;50.848;4.108;2024-02-26T07:27:58;6.10;99.90
19435;DHT22;9853;50.848;4.108;2024-02-26T07:30:04;6.20;99.90
19435;DHT22;9853;50.848;4.108;2024-02-26T07:32:59;6.10;99.90
19435;DHT22;9853;50.848;4.108;2024-02-26T07:35:17;6.10;99.90
19435;DHT22;9853;50.848;4.108;2024-02-26T07:38:19;6.10;99.90
19435;DHT22;9853;50.848;4.108;2024-02-26T07:40:20;6.10;99.90
19435;DHT22;9853;50.848;4.108;2024-02-26T07:42:29;6.10;99.90
19435;DHT22;9853;50.848;4.108;2024-02-26T07:45:00;6.10;99.90
19435;DHT22;9853;50.848;4.108;2024-02-26T07:47:24;6.20;99.90
19435;DHT22;9853;50.848;4.108;2024-02-26T07:49:50;6.10;99.90
19435;DHT22;9853;50.848;4.108;2024-02-26T07:52:55;6.10;99.90
19435;DHT22;9853;50.848;4.108;2024-02-26T07:55:27;6.10;99.90
19435;DHT22;9853;50.848;4.108;2024-02-26T07:57:41;6.20;99.90
19435;DHT22;9853;50.848;4.108;2024-02-26T07:59:45;6.20;99.90
19435;DHT22;9853;50.848;4.108;2024-02-26T08:01:51;6.20;99.90
19435;DHT22;9853;50.848;4.108;2024-02-26T08:03:55;6.20;99.90
19435;DHT22;9853;50.848;4.108;2024-02-26T08:06:01;6.10;99.90
19435;DHT22;9853;50.848;4.108;2024-02-26T08:08:09;6.20;99.90
19435;DHT22;9853;50.848;4.108;2024-02-26T08:10:33;6.20;99.90
19435;DHT22;9853;50.848;4.108;2024-02-26T08:15:15;6.20;99.90
19435;DHT22;9853;50.848;4.108;2024-02-26T08:17:29;6.20;99.90
19435;DHT22;9853;50.848;4.108;2024-02-26T08:19:41;6.20;99.90
19435;DHT22;9853;50.848;4.108;2024-02-26T08:22:12;6.20;99.90
19435;DHT22;9853;50.848;4.108;2024-02-26T08:25:02;6.20;99.90
19435;DHT22;9853;50.848;4.108;2024-02-26T08:32:47;6.20;99.90
19435;DHT22;9853;50.848;4.108;2024-02-26T08:35:13;6.20;99.90
19435;DHT22;9853;50.848;4.108;2024-02-26T08:37:20;6.20;99.90
19435;DHT22;9853;50.848;4.108;2024-02-26T08:39:23;6.20;99.90
19435;DHT22;9853;50.848;4.108;2024-02-26T08:41:43;6.20;99.90
19435;DHT22;9853;50.848;4.108;2024-02-26T08:43:47;6.10;99.90
19435;DHT22;9853;50.848;4.108;2024-02-26T08:45:53;6.20;99.90
19435;DHT22;9853;50.848;4.108;2024-02-26T08:47:58;6.20;99.90
19435;DHT22;9853;50.848;4.108;2024-02-26T08:50:07;6.20;99.90
19435;DHT22;9853;50.848;4.108;2024-02-26T08:52:10;6.30;99.90
19435;DHT22;9853;50.848;4.108;2024-02-26T08:54:29;6.30;99.90
19435;DHT22;9853;50.848;4.108;2024-02-26T08:56:41;6.30;99.90
19435;DHT22;9853;50.848;4.108;2024-02-26T08:59:04;6.20;99.90
19435;DHT22;9853;50.848;4.108;2024-02-26T09:01:20;6.30;99.90
19435;DHT22;9853;50.848;4.108;2024-02-26T09:03:29;6.30;99.90
19435;DHT22;9853;50.848;4.108;2024-02-26T09:05:33;6.30;99.90
19435;DHT22;9853;50.848;4.108;2024-02-26T09:07:48;6.30;99.90
19435;DHT22;9853;50.848;4.108;2024-02-26T09:10:22;6.20;99.90
19435;DHT22;9853;50.848;4.108;2024-02-26T09:15:09;6.20;99.90
19435;DHT22;9853;50.848;4.108;2024-02-26T09:17:18;6.20;99.90
19435;DHT22;9853;50.848;4.108;2024-02-26T09:19:29;6.20;99.90
19435;DHT22;9853;50.848;4.108;2024-02-26T09:21:30;6.20;99.90
19435;DHT22;9853;50.848;4.108;2024-02-26T09:23:34;6.10;99.90
19435;DHT22;9853;50.848;4.108;2024-02-26T09:25:35;6.10;99.90
19435;DHT22;9853;50.848;4.108;2024-02-26T09:27:42;6.10;99.90
19435;DHT22;9853;50.848;4.108;2024-02-26T09:30:06;6.10;99.90
19435;DHT22;9853;50.848;4.108;2024-02-26T09:32:31;6.00;99.90
19435;DHT22;9853;50.848;4.108;2024-02-26T09:34:54;6.00;99.90
19435;DHT22;9853;50.848;4.108;2024-02-26T09:37:12;6.00;99.90
19435;DHT22;9853;50.848;4.108;2024-02-26T09:39:21;6.00;99.90
19435;DHT22;9853;50.848;4.108;2024-02-26T09:41:44;6.00;99.90
19435;DHT22;9853;50.848;4.108;2024-02-26T09:44:33;6.00;99.90
19435;DHT22;9853;50.848;4.108;2024-02-26T09:55:07;6.00;99.90
